Time;durP1;ratioP1;P1;durP2;ratioP2;P2;SDS_P1;SDS_P2;PMS_P1;PMS_P2;Temp;Humidity;BMP_temperature;BMP_pressure;BME280_temperature;BME280_humidity;BME280_pressure;Samples;Min_cycle;Max_cycle;Signal;HPM_P1;HPM_P2
2023/03/24 00:02:06;;;;;;;0.90;0.90;;;;;;;;;;10282725;28;20278;-80
2023/03/24 00:07:07;;;;;;;0.90;0.90;;;;;;;;;;10275130;28;20244;-80
2023/03/24 00:12:12;;;;;;;0.88;0.80;;;;;;;;;;10279945;28;20239;-81
2023/03/24 00:17:16;;;;;;;1.50;0.90;;;;;;;;;;10304640;28;21698;-81
2023/03/24 00:22:20;;;;;;;1.88;0.98;;;;;;;;;;10285627;28;20486;-80
2023/03/24 00:27:21;;;;;;;1.15;0.90;;;;;;;;;;10291173;28;20216;-80
2023/03/24 00:32:22;;;;;;;0.73;0.60;;;;;;;;;;10274662;28;23682;-80
2023/03/24 00:37:23;;;;;;;0.80;0.80;;;;;;;;;;10291553;28;20220;-81
2023/03/24 00:42:24;;;;;;;2.85;0.80;;;;;;;;;;10298797;28;20228;-79
2023/03/24 00:47:25;;;;;;;0.75;0.60;;;;;;;;;;10293677;28;20655;-80
2023/03/24 00:52:32;;;;;;;0.60;0.60;;;;;;;;;;10287492;28;20224;-79
2023/03/24 00:57:34;;;;;;;0.68;0.68;;;;;;;;;;10281139;28;20864;-80
2023/03/24 01:02:35;;;;;;;0.70;0.70;;;;;;;;;;10270247;28;20208;-79
2023/03/24 01:07:40;;;;;;;0.60;0.60;;;;;;;;;;10286219;28;21899;-79
2023/03/24 01:12:41;;;;;;;0.52;0.52;;;;;;;;;;10277507;28;20231;-81
2023/03/24 01:17:42;;;;;;;1.00;0.70;;;;;;;;;;10292573;28;20227;-78
2023/03/24 01:22:45;;;;;;;3.35;0.82;;;;;;;;;;10287190;28;20235;-81
2023/03/24 01:27:46;;;;;;;2.15;0.73;;;;;;;;;;10279114;28;20251;-81
2023/03/24 01:32:47;;;;;;;1.08;1.08;;;;;;;;;;10274843;28;20311;-82
2023/03/24 01:37:49;;;;;;;0.57;0.47;;;;;;;;;;10277811;28;20228;-81
2023/03/24 01:42:53;;;;;;;2.55;0.95;;;;;;;;;;10296287;28;20228;-81
2023/03/24 01:47:55;;;;;;;0.70;0.70;;;;;;;;;;10276621;28;20255;-82
2023/03/24 01:52:56;;;;;;;0.73;0.73;;;;;;;;;;10289088;28;20231;-81
2023/03/24 01:57:59;;;;;;;0.60;0.60;;;;;;;;;;10295740;28;20258;-80
2023/03/24 02:03:08;;;;;;;0.98;0.98;;;;;;;;;;10294811;28;20216;-82
2023/03/24 02:08:19;;;;;;;2.70;1.10;;;;;;;;;;10287954;28;20232;-82
2023/03/24 02:13:22;;;;;;;0.93;0.93;;;;;;;;;;10287617;28;20313;-81
2023/03/24 02:18:33;;;;;;;0.90;0.90;;;;;;;;;;10293584;28;20229;-82
2023/03/24 02:23:46;;;;;;;1.20;1.10;;;;;;;;;;10293785;28;20220;-82
2023/03/24 02:28:47;;;;;;;1.25;1.15;;;;;;;;;;10285711;28;20697;-79
2023/03/24 02:34:07;;;;;;;2.08;1.40;;;;;;;;;;10285108;28;20223;-82
2023/03/24 02:39:09;;;;;;;1.45;1.30;;;;;;;;;;10281370;28;20705;-81
2023/03/24 02:44:10;;;;;;;1.67;1.58;;;;;;;;;;10302838;28;20630;-79
2023/03/24 02:49:19;;;;;;;1.33;1.33;;;;;;;;;;10273488;28;20228;-80
2023/03/24 02:54:32;;;;;;;1.20;1.20;;;;;;;;;;10274825;28;20228;-81
2023/03/24 02:59:33;;;;;;;1.30;1.30;;;;;;;;;;10282143;28;20217;-82
2023/03/24 03:04:39;;;;;;;1.20;1.20;;;;;;;;;;10277374;28;20220;-79
2023/03/24 03:09:42;;;;;;;1.73;1.13;;;;;;;;;;10284982;28;20224;-81
2023/03/24 03:14:49;;;;;;;1.20;1.20;;;;;;;;;;10285185;28;20224;-80
2023/03/24 03:19:54;;;;;;;1.40;0.98;;;;;;;;;;10291143;28;20345;-81
2023/03/24 03:24:56;;;;;;;2.72;1.17;;;;;;;;;;10287615;28;20226;-82
2023/03/24 03:29:59;;;;;;;1.30;1.20;;;;;;;;;;10298058;28;20228;-81
2023/03/24 03:35:00;;;;;;;1.55;1.48;;;;;;;;;;10290059;28;20788;-81
2023/03/24 03:40:10;;;;;;;1.33;1.17;;;;;;;;;;10309707;28;20792;-81
2023/03/24 03:45:14;;;;;;;1.63;1.33;;;;;;;;;;10298812;28;20596;-79
2023/03/24 03:50:16;;;;;;;1.65;1.52;;;;;;;;;;10291687;28;20232;-79
2023/03/24 03:55:17;;;;;;;1.55;1.50;;;;;;;;;;10305087;28;20262;-80
2023/03/24 04:00:21;;;;;;;0.98;0.98;;;;;;;;;;10290786;28;20692;-80
2023/03/24 04:05:53;;;;;;;2.03;1.27;;;;;;;;;;10288454;28;20645;-79
2023/03/24 04:11:17;;;;;;;1.45;1.20;;;;;;;;;;10283348;28;20650;-80
2023/03/24 04:16:53;;;;;;;1.52;1.42;;;;;;;;;;10304303;28;20823;-80
2023/03/24 04:22:06;;;;;;;1.85;1.38;;;;;;;;;;10307831;28;20661;-78
2023/03/24 04:27:16;;;;;;;1.27;1.27;;;;;;;;;;10293440;28;20964;-81
2023/03/24 04:32:23;;;;;;;1.40;1.27;;;;;;;;;;10287540;28;20278;-80
2023/03/24 04:37:26;;;;;;;1.40;1.40;;;;;;;;;;10281867;28;20292;-81
2023/03/24 04:42:44;;;;;;;1.33;1.23;;;;;;;;;;10295869;28;20295;-83
2023/03/24 04:47:52;;;;;;;1.67;1.58;;;;;;;;;;10305811;28;20314;-82
2023/03/24 04:53:15;;;;;;;1.58;1.48;;;;;;;;;;10290518;28;20227;-80
2023/03/24 04:58:18;;;;;;;1.58;1.45;;;;;;;;;;10297846;28;20656;-84
2023/03/24 05:03:19;;;;;;;1.13;1.13;;;;;;;;;;10281187;28;20220;-82
2023/03/24 05:08:21;;;;;;;2.25;1.20;;;;;;;;;;10296185;28;20273;-83
2023/03/24 05:13:24;;;;;;;1.67;1.67;;;;;;;;;;10274019;28;20244;-83
2023/03/24 05:18:29;;;;;;;1.42;1.42;;;;;;;;;;10309119;28;20223;-82
2023/03/24 05:23:31;;;;;;;1.38;1.38;;;;;;;;;;10301110;28;20550;-81
2023/03/24 05:28:33;;;;;;;1.77;1.55;;;;;;;;;;10291539;28;20681;-78
2023/03/24 05:33:34;;;;;;;1.60;1.60;;;;;;;;;;10286653;28;20220;-82
2023/03/24 05:38:36;;;;;;;1.80;1.48;;;;;;;;;;10294072;28;20363;-82
2023/03/24 05:43:37;;;;;;;1.42;1.35;;;;;;;;;;10304931;28;20225;-80
2023/03/24 05:48:45;;;;;;;1.40;1.40;;;;;;;;;;10299296;28;20231;-83
2023/03/24 05:53:50;;;;;;;0.80;0.80;;;;;;;;;;10280499;28;20227;-81
2023/03/24 05:58:54;;;;;;;1.00;1.00;;;;;;;;;;10302923;28;20236;-83
2023/03/24 06:03:57;;;;;;;1.13;1.13;;;;;;;;;;10277437;28;20231;-81
2023/03/24 06:09:01;;;;;;;4.30;1.48;;;;;;;;;;10279835;28;20730;-82
2023/03/24 06:14:03;;;;;;;1.00;1.00;;;;;;;;;;10292046;28;20255;-82
2023/03/24 06:19:13;;;;;;;1.58;1.58;;;;;;;;;;10289801;28;20653;-82
2023/03/24 06:24:23;;;;;;;1.25;1.23;;;;;;;;;;10268673;28;20303;-83
2023/03/24 06:29:26;;;;;;;1.52;1.52;;;;;;;;;;10278811;28;20235;-81
2023/03/24 06:34:28;;;;;;;2.17;2.00;;;;;;;;;;10281748;28;20476;-80
2023/03/24 06:39:46;;;;;;;2.13;2.03;;;;;;;;;;10285316;28;20719;-82
2023/03/24 06:44:50;;;;;;;1.95;1.95;;;;;;;;;;10270661;28;20212;-79
2023/03/24 06:49:52;;;;;;;2.58;1.95;;;;;;;;;;10293504;28;20307;-81
2023/03/24 06:54:53;;;;;;;1.85;1.75;;;;;;;;;;10264092;28;20235;-81
2023/03/24 06:59:54;;;;;;;3.35;2.10;;;;;;;;;;10275668;28;20235;-80
2023/03/24 07:04:57;;;;;;;1.80;1.80;;;;;;;;;;10262332;28;20421;-81
2023/03/24 07:10:11;;;;;;;1.58;1.58;;;;;;;;;;10271723;28;20232;-81
2023/03/24 07:15:13;;;;;;;2.20;2.10;;;;;;;;;;10280361;28;20290;-81
2023/03/24 07:20:15;;;;;;;1.77;1.75;;;;;;;;;;10290783;28;20227;-79
2023/03/24 07:25:19;;;;;;;1.90;1.80;;;;;;;;;;10279240;28;20254;-82
2023/03/24 07:30:30;;;;;;;1.88;1.77;;;;;;;;;;10320583;28;20216;-80
2023/03/24 07:35:31;;;;;;;1.70;1.70;;;;;;;;;;10280875;28;20275;-81
2023/03/24 07:40:33;;;;;;;2.20;2.10;;;;;;;;;;10301112;28;20228;-81
2023/03/24 07:45:35;;;;;;;2.45;1.95;;;;;;;;;;10310304;28;20216;-80
2023/03/24 07:50:36;;;;;;;2.45;1.85;;;;;;;;;;10305638;28;20223;-80
2023/03/24 07:55:45;;;;;;;1.30;1.30;;;;;;;;;;10324565;28;20331;-83
2023/03/24 08:00:51;;;;;;;1.70;1.70;;;;;;;;;;10355938;28;20216;-81
2023/03/24 08:06:00;;;;;;;4.45;1.52;;;;;;;;;;10330946;28;20227;-82
2023/03/24 08:11:14;;;;;;;1.73;1.73;;;;;;;;;;10319155;28;20227;-82
2023/03/24 08:16:15;;;;;;;1.63;1.60;;;;;;;;;;10300693;28;20800;-81
2023/03/24 08:21:16;;;;;;;1.85;1.75;;;;;;;;;;10270017;28;20228;-83
2023/03/24 08:26:17;;;;;;;1.83;1.73;;;;;;;;;;10290591;28;20789;-81
2023/03/24 08:31:18;;;;;;;2.13;2.03;;;;;;;;;;10303789;28;20224;-81
2023/03/24 08:36:20;;;;;;;1.73;1.73;;;;;;;;;;10282771;28;20224;-80
2023/03/24 08:41:29;;;;;;;4.05;2.03;;;;;;;;;;10282921;28;20278;-81
2023/03/24 08:46:31;;;;;;;2.90;1.80;;;;;;;;;;10283769;28;21744;-80
2023/03/24 08:51:32;;;;;;;1.45;1.45;;;;;;;;;;10310663;28;20247;-82
2023/03/24 08:56:33;;;;;;;1.13;1.13;;;;;;;;;;10304963;28;20231;-81
2023/03/24 09:01:34;;;;;;;0.60;0.60;;;;;;;;;;10305832;28;20255;-80
2023/03/24 09:06:35;;;;;;;0.40;0.40;;;;;;;;;;10278686;28;20273;-81
2023/03/24 09:11:39;;;;;;;0.30;0.30;;;;;;;;;;10287095;28;20220;-83
2023/03/24 09:16:42;;;;;;;0.40;0.40;;;;;;;;;;10294123;28;20283;-83
2023/03/24 09:21:44;;;;;;;0.45;0.45;;;;;;;;;;10262616;28;20219;-81
2023/03/24 09:26:45;;;;;;;1.85;0.80;;;;;;;;;;10300536;28;20698;-81
2023/03/24 09:31:46;;;;;;;0.57;0.57;;;;;;;;;;10284956;28;20266;-82
2023/03/24 09:36:47;;;;;;;0.63;0.63;;;;;;;;;;10304138;28;20820;-82
2023/03/24 09:41:49;;;;;;;0.68;0.68;;;;;;;;;;10307236;28;20528;-81
2023/03/24 09:47:13;;;;;;;0.70;0.70;;;;;;;;;;10305852;28;20228;-80
2023/03/24 09:52:18;;;;;;;0.80;0.80;;;;;;;;;;10280075;28;21432;-84
2023/03/24 09:57:28;;;;;;;0.90;0.90;;;;;;;;;;10293601;28;20468;-78
2023/03/24 10:02:30;;;;;;;0.93;0.93;;;;;;;;;;10295416;28;20224;-80
2023/03/24 10:07:31;;;;;;;0.90;0.90;;;;;;;;;;10282380;28;20224;-80
2023/03/24 10:12:39;;;;;;;0.77;0.70;;;;;;;;;;10297303;28;20602;-79
2023/03/24 10:17:49;;;;;;;3.58;1.08;;;;;;;;;;10273007;28;20227;-80
2023/03/24 10:22:55;;;;;;;0.85;0.85;;;;;;;;;;10292513;28;20278;-78
2023/03/24 10:28:02;;;;;;;0.85;0.70;;;;;;;;;;10281923;28;20220;-81
2023/03/24 10:33:03;;;;;;;0.82;0.82;;;;;;;;;;10293288;28;20219;-79
2023/03/24 10:38:13;;;;;;;0.80;0.80;;;;;;;;;;10302296;28;20216;-81
2023/03/24 10:43:16;;;;;;;0.70;0.70;;;;;;;;;;10280391;28;20344;-82
2023/03/24 10:48:36;;;;;;;1.90;0.95;;;;;;;;;;10275401;28;20220;-81
2023/03/24 10:53:38;;;;;;;1.10;0.75;;;;;;;;;;10284223;28;20267;-82
2023/03/24 10:58:40;;;;;;;1.35;0.90;;;;;;;;;;10290712;28;20606;-82
2023/03/24 11:03:41;;;;;;;0.75;0.73;;;;;;;;;;10289838;28;20736;-83
2023/03/24 11:08:42;;;;;;;1.30;1.20;;;;;;;;;;10284255;28;20625;-81
2023/03/24 11:13:53;;;;;;;1.10;1.10;;;;;;;;;;10300099;28;20461;-82
2023/03/24 11:19:17;;;;;;;1.10;1.10;;;;;;;;;;10280825;28;20224;-81
2023/03/24 11:24:19;;;;;;;0.90;0.90;;;;;;;;;;10295464;28;20239;-81
2023/03/24 11:29:24;;;;;;;3.35;0.85;;;;;;;;;;10299329;28;20369;-80
2023/03/24 11:34:32;;;;;;;4.35;0.70;;;;;;;;;;10293428;28;20576;-82
2023/03/24 11:39:34;;;;;;;0.50;0.50;;;;;;;;;;10300970;28;20602;-81
2023/03/24 11:44:38;;;;;;;0.70;0.70;;;;;;;;;;10301875;28;20730;-78
2023/03/24 11:49:45;;;;;;;0.73;0.70;;;;;;;;;;10307603;28;20235;-81
2023/03/24 11:54:46;;;;;;;1.85;0.63;;;;;;;;;;10295580;28;20788;-81
2023/03/24 11:59:56;;;;;;;0.60;0.60;;;;;;;;;;10301707;28;20654;-80
2023/03/24 12:05:07;;;;;;;0.70;0.70;;;;;;;;;;10299165;28;20221;-80
2023/03/24 12:10:17;;;;;;;1.40;0.73;;;;;;;;;;10280912;28;20219;-82
2023/03/24 12:15:37;;;;;;;0.60;0.60;;;;;;;;;;10290958;28;20701;-81
2023/03/24 12:20:57;;;;;;;0.80;0.80;;;;;;;;;;10265905;28;20232;-81
2023/03/24 12:26:17;;;;;;;0.88;0.88;;;;;;;;;;10281278;28;20221;-82
2023/03/24 12:31:30;;;;;;;2.78;1.08;;;;;;;;;;10295782;28;20226;-82
2023/03/24 12:36:50;;;;;;;1.67;1.00;;;;;;;;;;10281544;28;20220;-79
2023/03/24 12:41:57;;;;;;;4.60;1.15;;;;;;;;;;10283694;28;20224;-81
2023/03/24 12:47:13;;;;;;;1.40;1.30;;;;;;;;;;10303029;28;20232;-81
2023/03/24 12:52:23;;;;;;;1.27;1.17;;;;;;;;;;10279254;28;20375;-79
2023/03/24 12:57:26;;;;;;;1.50;0.90;;;;;;;;;;10284852;28;20656;-80
2023/03/24 13:02:36;;;;;;;1.55;1.20;;;;;;;;;;10279246;28;20233;-81
2023/03/24 13:07:38;;;;;;;1.33;1.27;;;;;;;;;;10274189;28;20228;-79
2023/03/24 13:12:57;;;;;;;1.95;1.13;;;;;;;;;;10304883;28;20273;-82
2023/03/24 13:18:04;;;;;;;2.47;1.30;;;;;;;;;;10290739;28;20224;-81
2023/03/24 13:23:19;;;;;;;3.25;1.20;;;;;;;;;;10301221;28;20232;-80
2023/03/24 13:28:24;;;;;;;1.25;1.23;;;;;;;;;;10312977;28;20231;-80
2023/03/24 13:33:30;;;;;;;3.03;1.73;;;;;;;;;;10306920;28;20859;-80
2023/03/24 13:38:42;;;;;;;4.40;1.88;;;;;;;;;;10294942;28;20228;-80
2023/03/24 13:43:48;;;;;;;2.75;1.98;;;;;;;;;;10298563;28;20277;-80
2023/03/24 13:48:54;;;;;;;2.42;2.22;;;;;;;;;;10283158;28;20231;-80
2023/03/24 13:54:06;;;;;;;2.00;1.90;;;;;;;;;;10287347;28;20372;-82
2023/03/24 13:59:20;;;;;;;2.30;1.30;;;;;;;;;;10311645;28;20229;-81
2023/03/24 14:04:26;;;;;;;1.23;0.82;;;;;;;;;;10286495;28;20251;-82
2023/03/24 14:09:27;;;;;;;2.25;1.08;;;;;;;;;;10314023;28;20594;-82
2023/03/24 14:14:28;;;;;;;2.58;1.10;;;;;;;;;;10302146;28;20223;-83
2023/03/24 14:19:31;;;;;;;1.30;1.15;;;;;;;;;;10294251;28;20318;-81
2023/03/24 14:24:32;;;;;;;3.88;1.05;;;;;;;;;;10316295;28;20246;-82
2023/03/24 14:29:38;;;;;;;1.25;0.95;;;;;;;;;;10282713;28;20404;-82
2023/03/24 14:34:49;;;;;;;1.00;1.00;;;;;;;;;;10295576;28;20390;-82
2023/03/24 14:39:51;;;;;;;1.70;1.20;;;;;;;;;;10264652;28;20228;-81
2023/03/24 14:44:53;;;;;;;2.35;1.38;;;;;;;;;;10319994;28;20223;-82
2023/03/24 14:49:55;;;;;;;1.45;1.33;;;;;;;;;;10312436;28;20225;-80
2023/03/24 14:55:01;;;;;;;1.92;1.50;;;;;;;;;;10291436;28;20247;-82
2023/03/24 15:00:13;;;;;;;3.85;1.25;;;;;;;;;;10301383;28;20252;-82
2023/03/24 15:05:15;;;;;;;1.30;1.10;;;;;;;;;;10307342;28;20209;-82
2023/03/24 15:10:17;;;;;;;1.20;1.20;;;;;;;;;;10297217;28;20278;-81
2023/03/24 15:15:21;;;;;;;2.20;1.52;;;;;;;;;;10293265;28;20587;-81
2023/03/24 15:20:24;;;;;;;2.35;1.20;;;;;;;;;;10289361;28;20303;-82
2023/03/24 15:25:26;;;;;;;2.08;1.52;;;;;;;;;;10301370;28;20255;-78
2023/03/24 15:30:28;;;;;;;1.30;1.17;;;;;;;;;;10299415;28;20228;-81
2023/03/24 15:35:33;;;;;;;1.40;1.35;;;;;;;;;;10313551;28;20591;-81
2023/03/24 15:40:35;;;;;;;2.30;1.58;;;;;;;;;;10302185;28;20757;-81
2023/03/24 15:45:46;;;;;;;3.42;1.40;;;;;;;;;;10316244;28;20307;-83
2023/03/24 15:51:03;;;;;;;1.70;1.27;;;;;;;;;;10277211;28;20242;-81
2023/03/24 15:56:24;;;;;;;1.63;1.20;;;;;;;;;;10278794;28;20234;-79
2023/03/24 16:01:29;;;;;;;2.63;1.33;;;;;;;;;;10318326;28;20262;-80
2023/03/24 16:06:37;;;;;;;2.08;0.90;;;;;;;;;;10300947;28;20246;-79
2023/03/24 16:11:38;;;;;;;1.55;1.00;;;;;;;;;;10294917;28;20276;-81
2023/03/24 16:16:42;;;;;;;2.28;0.90;;;;;;;;;;10304656;28;20260;-80
2023/03/24 16:21:44;;;;;;;0.80;0.80;;;;;;;;;;10312992;28;20252;-81
2023/03/24 16:26:45;;;;;;;1.08;0.98;;;;;;;;;;10297646;28;20215;-80
2023/03/24 16:31:48;;;;;;;0.65;0.65;;;;;;;;;;10275763;28;20223;-80
2023/03/24 16:36:49;;;;;;;1.40;0.68;;;;;;;;;;10274815;28;20702;-79
2023/03/24 16:41:51;;;;;;;2.80;1.00;;;;;;;;;;10287064;28;20228;-81
2023/03/24 16:46:52;;;;;;;1.05;0.80;;;;;;;;;;10292513;28;20724;-81
2023/03/24 16:51:53;;;;;;;0.98;0.80;;;;;;;;;;10311350;28;20212;-80
2023/03/24 16:56:54;;;;;;;1.33;0.90;;;;;;;;;;10316005;28;20231;-82
2023/03/24 17:02:01;;;;;;;2.78;1.02;;;;;;;;;;10310676;28;21839;-79
2023/03/24 17:07:02;;;;;;;2.47;1.05;;;;;;;;;;10308411;28;20220;-79
2023/03/24 17:12:04;;;;;;;2.85;1.10;;;;;;;;;;10295769;28;20315;-80
2023/03/24 17:17:09;;;;;;;2.25;0.95;;;;;;;;;;10277978;28;20376;-79
2023/03/24 17:22:16;;;;;;;1.25;1.10;;;;;;;;;;10294440;28;20274;-82
2023/03/24 17:27:17;;;;;;;3.25;1.45;;;;;;;;;;10319414;28;20236;-81
2023/03/24 17:32:18;;;;;;;5.93;3.38;;;;;;;;;;10318510;28;20255;-83
2023/03/24 17:37:19;;;;;;;1.77;0.90;;;;;;;;;;10307626;28;20221;-82
2023/03/24 17:42:21;;;;;;;3.90;1.23;;;;;;;;;;10298993;28;20221;-80
2023/03/24 17:47:21;;;;;;;6.43;3.17;;;;;;;;;;10318460;28;20231;-82
2023/03/24 17:52:23;;;;;;;5.63;4.00;;;;;;;;;;10327189;28;20227;-84
2023/03/24 17:57:24;;;;;;;10.00;2.53;;;;;;;;;;10330210;28;20224;-83
2023/03/24 18:02:25;;;;;;;2.60;2.35;;;;;;;;;;10316931;28;20259;-82
2023/03/24 18:07:26;;;;;;;1.20;1.10;;;;;;;;;;10310011;28;20283;-83
2023/03/24 18:12:27;;;;;;;2.00;0.60;;;;;;;;;;10311327;28;20239;-82
2023/03/24 18:17:28;;;;;;;0.93;0.70;;;;;;;;;;10302352;28;20243;-83
2023/03/24 18:22:32;;;;;;;0.52;0.52;;;;;;;;;;10300068;28;20224;-82
2023/03/24 18:27:33;;;;;;;2.58;1.13;;;;;;;;;;10296052;28;20224;-83
2023/03/24 18:32:37;;;;;;;0.80;0.80;;;;;;;;;;10315978;28;20274;-84
2023/03/24 18:37:38;;;;;;;2.15;0.32;;;;;;;;;;10283066;28;20780;-83
2023/03/24 18:42:39;;;;;;;0.88;0.40;;;;;;;;;;10302893;28;20317;-81
2023/03/24 18:47:40;;;;;;;0.70;0.70;;;;;;;;;;10303539;28;20224;-83
2023/03/24 18:52:41;;;;;;;2.03;0.75;;;;;;;;;;10316310;28;20228;-81
2023/03/24 18:57:42;;;;;;;3.50;0.80;;;;;;;;;;10330414;28;20228;-82
2023/03/24 19:02:43;;;;;;;0.75;0.75;;;;;;;;;;10345846;28;20209;-82
2023/03/24 19:07:45;;;;;;;0.95;0.73;;;;;;;;;;10315810;28;20232;-82
2023/03/24 19:12:46;;;;;;;4.75;0.82;;;;;;;;;;10344854;28;20223;-83
2023/03/24 19:17:47;;;;;;;0.77;0.77;;;;;;;;;;10312568;28;21225;-83
2023/03/24 19:22:48;;;;;;;5.07;4.68;;;;;;;;;;10323822;28;20238;-82
2023/03/24 19:27:49;;;;;;;5.75;1.90;;;;;;;;;;10319575;28;20270;-81
2023/03/24 19:32:50;;;;;;;6.50;3.60;;;;;;;;;;10309356;28;20259;-84
2023/03/24 19:37:52;;;;;;;2.03;1.17;;;;;;;;;;10319964;28;20222;-83
2023/03/24 19:42:53;;;;;;;4.43;0.80;;;;;;;;;;10316679;28;20229;-80
2023/03/24 19:47:54;;;;;;;0.80;0.80;;;;;;;;;;10313759;28;20229;-81
2023/03/24 19:52:55;;;;;;;0.75;0.75;;;;;;;;;;10316274;28;22089;-81
2023/03/24 19:57:56;;;;;;;0.80;0.80;;;;;;;;;;10304833;28;20239;-80
2023/03/24 20:02:57;;;;;;;2.50;2.30;;;;;;;;;;10313596;28;20231;-80
2023/03/24 20:07:59;;;;;;;1.20;1.00;;;;;;;;;;10320921;28;20236;-81
2023/03/24 20:13:00;;;;;;;0.93;0.88;;;;;;;;;;10296674;28;20228;-80
2023/03/24 20:18:01;;;;;;;2.40;0.80;;;;;;;;;;10314428;28;21271;-81
2023/03/24 20:23:02;;;;;;;1.10;0.70;;;;;;;;;;10311406;28;20227;-80
2023/03/24 20:28:03;;;;;;;1.00;0.60;;;;;;;;;;10308541;28;20215;-81
2023/03/24 20:33:05;;;;;;;0.65;0.60;;;;;;;;;;10292122;28;20220;-80
2023/03/24 20:38:06;;;;;;;0.73;0.73;;;;;;;;;;10301435;28;20339;-81
2023/03/24 20:43:07;;;;;;;1.15;0.50;;;;;;;;;;10270103;28;20231;-77
2023/03/24 20:48:08;;;;;;;1.98;1.13;;;;;;;;;;10302727;28;20242;-78
2023/03/24 20:53:09;;;;;;;3.50;0.90;;;;;;;;;;10296613;28;20224;-79
2023/03/24 20:58:10;;;;;;;0.75;0.75;;;;;;;;;;10300063;28;20225;-81
2023/03/24 21:03:12;;;;;;;3.22;0.70;;;;;;;;;;10306529;28;20298;-80
2023/03/24 21:08:13;;;;;;;0.80;0.70;;;;;;;;;;10309153;28;20252;-80
2023/03/24 21:13:14;;;;;;;2.05;0.60;;;;;;;;;;10296035;28;20223;-80
2023/03/24 21:18:15;;;;;;;1.33;0.50;;;;;;;;;;10301619;28;20263;-81
2023/03/24 21:23:17;;;;;;;0.32;0.32;;;;;;;;;;10308257;28;20302;-81
2023/03/24 21:28:18;;;;;;;0.40;0.40;;;;;;;;;;10289369;28;20224;-79
2023/03/24 21:33:19;;;;;;;0.80;0.80;;;;;;;;;;10306073;28;20236;-79
2023/03/24 21:38:20;;;;;;;0.60;0.60;;;;;;;;;;10299098;28;20229;-79
2023/03/24 21:43:21;;;;;;;3.83;1.15;;;;;;;;;;10307740;28;20298;-80
2023/03/24 21:48:23;;;;;;;0.60;0.60;;;;;;;;;;10279313;28;20224;-79
2023/03/24 21:53:25;;;;;;;1.02;0.60;;;;;;;;;;10293644;28;21955;-80
2023/03/24 21:58:27;;;;;;;1.63;0.93;;;;;;;;;;10293756;28;20235;-79
2023/03/24 22:03:29;;;;;;;2.63;0.50;;;;;;;;;;10279675;28;20261;-80
2023/03/24 22:08:30;;;;;;;0.52;0.52;;;;;;;;;;10269730;28;20250;-79
2023/03/24 22:13:32;;;;;;;0.50;0.50;;;;;;;;;;10291479;28;20660;-80
2023/03/24 22:18:33;;;;;;;0.50;0.50;;;;;;;;;;10286776;28;20575;-82
2023/03/24 22:23:36;;;;;;;0.82;0.77;;;;;;;;;;10293250;28;20610;-80
2023/03/24 22:28:38;;;;;;;1.30;0.70;;;;;;;;;;10296939;28;20329;-79
2023/03/24 22:33:40;;;;;;;0.60;0.60;;;;;;;;;;10303124;28;20232;-80
2023/03/24 22:38:41;;;;;;;1.67;0.63;;;;;;;;;;10301075;28;20228;-79
2023/03/24 22:43:42;;;;;;;0.80;0.63;;;;;;;;;;10295356;28;20290;-81
2023/03/24 22:48:46;;;;;;;2.53;0.63;;;;;;;;;;10286813;28;20228;-81
2023/03/24 22:53:47;;;;;;;0.43;0.40;;;;;;;;;;10301939;28;20779;-80
2023/03/24 22:58:48;;;;;;;1.48;0.47;;;;;;;;;;10296384;28;20223;-79
2023/03/24 23:03:49;;;;;;;0.63;0.40;;;;;;;;;;10287585;28;20246;-79
2023/03/24 23:08:52;;;;;;;2.50;0.47;;;;;;;;;;10314509;28;20230;-80
2023/03/24 23:14:01;;;;;;;0.90;0.40;;;;;;;;;;10325534;28;20323;-79
2023/03/24 23:19:02;;;;;;;1.55;0.50;;;;;;;;;;10290659;28;20692;-80
2023/03/24 23:24:03;;;;;;;0.43;0.38;;;;;;;;;;10306888;28;20228;-79
2023/03/24 23:29:04;;;;;;;0.55;0.30;;;;;;;;;;10327973;28;20228;-79
2023/03/24 23:34:06;;;;;;;1.45;0.32;;;;;;;;;;10302438;28;20641;-78
2023/03/24 23:39:07;;;;;;;1.58;0.40;;;;;;;;;;10294174;28;20235;-81
2023/03/24 23:44:10;;;;;;;0.20;0.20;;;;;;;;;;10326529;28;20224;-81
2023/03/24 23:49:10;;;;;;;0.73;0.30;;;;;;;;;;10308159;28;20829;-80
2023/03/24 23:54:11;;;;;;;1.35;0.30;;;;;;;;;;10303914;28;20224;-78
2023/03/24 23:59:13;;;;;;;0.30;0.30;;;;;;;;;;10319592;28;20229;-80
